Time,TemperatureF,DewpointF,PressureIn,WindDirection,WindDirectionDegrees,WindSpeedMPH,WindSpeedGustMPH,Humidity,HourlyPrecipIn,Conditions,Clouds,dailyrainin,SoftwareType,DateUTC
2013-01-01 00:02:00,13.0,0.0,-100.00,SE,130,7.0,9.0,56,-99.99,,,-99.99,,2013-01-01 05:02:00,
2013-01-01 00:12:00,13.0,0.0,-100.00,SE,135,7.0,9.0,56,-99.99,,,-99.99,,2013-01-01 05:12:00,
2013-01-01 00:22:00,13.0,0.0,-100.00,South,190,3.0,6.0,56,-99.99,,,-99.99,,2013-01-01 05:22:00,
2013-01-01 00:32:00,13.0,1.0,-100.00,South,175,5.0,6.0,55,-99.99,,,-99.99,,2013-01-01 05:32:00,
2013-01-01 00:42:00,14.0,1.0,-100.00,SSW,205,6.0,7.0,55,-99.99,,,-99.99,,2013-01-01 05:42:00,
2013-01-01 00:52:00,15.0,2.0,-100.00,SSW,200,2.0,6.0,53,-99.99,,,-99.99,,2013-01-01 05:52:00,
2013-01-01 01:02:00,16.0,2.0,-100.00,SSW,195,2.0,4.0,52,-99.99,,,-99.99,,2013-01-01 06:02:00,
2013-01-01 01:11:00,16.0,2.0,-100.00,WSW,245,2.0,3.0,53,-99.99,,,-99.99,,2013-01-01 06:11:00,
2013-01-01 01:22:00,16.0,2.0,-100.00,WNW,285,2.0,3.0,53,-99.99,,,-99.99,,2013-01-01 06:22:00,
2013-01-01 01:32:00,16.0,2.0,-100.00,West,265,4.0,4.0,53,-99.99,,,-99.99,,2013-01-01 06:32:00,
2013-01-01 01:42:00,16.0,3.0,-100.00,West,260,4.0,4.0,54,-99.99,,,-99.99,,2013-01-01 06:42:00,
2013-01-01 01:52:00,17.0,3.0,-100.00,West,275,1.0,4.0,53,-99.99,,,-99.99,,2013-01-01 06:52:00,
2013-01-01 02:01:00,18.0,3.0,-100.00,NNE,15,1.0,2.0,52,-99.99,,,-99.99,,2013-01-01 07:01:00,
2013-01-01 02:11:00,18.0,3.0,-100.00,North,0,0.0,2.0,52,-99.99,,,-99.99,,2013-01-01 07:11:00,
2013-01-01 02:21:00,17.0,3.0,-100.00,SE,145,3.0,4.0,53,-99.99,,,-99.99,,2013-01-01 07:21:00,
2013-01-01 02:32:00,16.0,3.0,-100.00,South,190,4.0,6.0,56,-99.99,,,-99.99,,2013-01-01 07:32:00,
2013-01-01 02:42:00,16.0,3.0,-100.00,SW,215,4.0,6.0,56,-99.99,,,-99.99,,2013-01-01 07:42:00,
2013-01-01 02:52:00,18.0,4.0,-100.00,SW,225,6.0,7.0,55,-99.99,,,-99.99,,2013-01-01 07:52:00,
2013-01-01 03:02:00,18.0,5.0,-100.00,WSW,245,3.0,6.0,56,-99.99,,,-99.99,,2013-01-01 08:02:00,
2013-01-01 03:11:00,18.0,5.0,-100.00,WSW,245,2.0,4.0,56,-99.99,,,-99.99,,2013-01-01 08:11:00,
2013-01-01 03:21:00,18.0,6.0,-100.00,WSW,255,4.0,5.0,57,-99.99,,,-99.99,,2013-01-01 08:21:00,
2013-01-01 03:32:00,18.0,6.0,-100.00,WSW,250,3.0,4.0,57,-99.99,,,-99.99,,2013-01-01 08:32:00,
2013-01-01 03:42:00,18.0,6.0,-100.00,SW,215,0.0,4.0,57,-99.99,,,-99.99,,2013-01-01 08:42:00,
2013-01-01 03:53:00,17.0,5.0,-100.00,SE,125,6.0,7.0,60,-99.99,,,-99.99,,2013-01-01 08:53:00,
2013-01-01 04:02:00,16.0,6.0,-100.00,South,190,4.0,6.0,62,-99.99,,,-99.99,,2013-01-01 09:02:00,
2013-01-01 04:11:00,17.0,6.0,-100.00,South,190,6.0,6.0,62,-99.99,,,-99.99,,2013-01-01 09:11:00,
2013-01-01 04:21:00,18.0,6.0,-100.00,SW,225,4.0,6.0,61,-99.99,,,-99.99,,2013-01-01 09:21:00,
2013-01-01 04:32:00,18.0,7.0,-100.00,WSW,255,4.0,4.0,59,-99.99,,,-99.99,,2013-01-01 09:32:00,
2013-01-01 04:42:00,18.0,7.0,-100.00,WNW,290,4.0,7.0,60,-99.99,,,-99.99,,2013-01-01 09:42:00,
2013-01-01 04:52:00,18.0,8.0,-100.00,West,260,6.0,7.0,66,-99.99,,,-99.99,,2013-01-01 09:52:00,
2013-01-01 05:01:00,17.0,10.0,-100.00,WSW,255,4.0,6.0,73,-99.99,,,-99.99,,2013-01-01 10:01:00,
2013-01-01 05:11:00,17.0,11.0,-100.00,West,265,4.0,6.0,76,-99.99,,,-99.99,,2013-01-01 10:11:00,
2013-01-01 05:22:00,18.0,13.0,-100.00,WSW,245,4.0,4.0,80,-99.99,,,-99.99,,2013-01-01 10:22:00,
2013-01-01 05:32:00,18.0,14.0,-100.00,SW,225,6.0,7.0,83,-99.99,,,-99.99,,2013-01-01 10:32:00,
2013-01-01 05:42:00,18.0,14.0,-100.00,SW,220,7.0,8.0,84,-99.99,,,-99.99,,2013-01-01 10:42:00,
2013-01-01 05:52:00,18.0,14.0,-100.00,SSW,200,9.0,9.0,85,-99.99,,,-99.99,,2013-01-01 10:52:00,
2013-01-01 06:01:00,18.0,13.0,-100.00,SSW,210,6.0,10.0,82,-99.99,,,-99.99,,2013-01-01 11:01:00,
2013-01-01 06:11:00,18.0,13.0,-100.00,SW,225,9.0,11.0,79,-99.99,,,-99.99,,2013-01-01 11:11:00,
2013-01-01 06:22:00,18.0,12.0,-100.00,SW,220,9.0,12.0,76,-99.99,,,-99.99,,2013-01-01 11:22:00,
2013-01-01 06:32:00,18.0,11.0,-100.00,SW,225,11.0,11.0,73,-99.99,,,-99.99,,2013-01-01 11:32:00,
2013-01-01 06:42:00,18.0,11.0,-100.00,SW,215,10.0,11.0,72,-99.99,,,-99.99,,2013-01-01 11:42:00,
2013-01-01 06:52:00,18.0,10.0,-100.00,SW,215,9.0,11.0,71,-99.99,,,-99.99,,2013-01-01 11:52:00,
2013-01-01 07:02:00,18.0,10.0,-100.00,SW,220,9.0,10.0,69,-99.99,,,-99.99,,2013-01-01 12:02:00,
2013-01-01 07:11:00,18.0,10.0,-100.00,WSW,255,6.0,10.0,69,-99.99,,,-99.99,,2013-01-01 12:11:00,
2013-01-01 07:22:00,18.0,9.0,-100.00,WSW,250,6.0,7.0,65,-99.99,,,-99.99,,2013-01-01 12:22:00,
2013-01-01 07:32:00,18.0,8.0,-100.00,WSW,250,6.0,7.0,64,-99.99,,,-99.99,,2013-01-01 12:32:00,
2013-01-01 07:42:00,18.0,8.0,-100.00,WSW,245,5.0,6.0,63,-99.99,,,-99.99,,2013-01-01 12:42:00,
2013-01-01 07:52:00,18.0,8.0,-100.00,West,260,6.0,6.0,63,-99.99,,,-99.99,,2013-01-01 12:52:00,
2013-01-01 08:02:00,18.0,7.0,-100.00,WSW,245,5.0,6.0,62,-99.99,,,-99.99,,2013-01-01 13:02:00,
2013-01-01 08:12:00,17.0,7.0,-100.00,SW,235,9.0,9.0,62,-99.99,,,-99.99,,2013-01-01 13:12:00,
2013-01-01 08:22:00,17.0,6.0,-100.00,SW,230,11.0,11.0,61,-99.99,,,-99.99,,2013-01-01 13:22:00,
2013-01-01 08:32:00,16.0,6.0,-100.00,SW,230,10.0,12.0,61,-99.99,,,-99.99,,2013-01-01 13:32:00,
2013-01-01 08:42:00,16.0,5.0,-100.00,SW,235,10.0,12.0,61,-99.99,,,-99.99,,2013-01-01 13:42:00,
2013-01-01 08:52:00,18.0,7.0,-100.00,West,265,6.0,9.0,61,-99.99,,,-99.99,,2013-01-01 13:52:00,
2013-01-01 09:02:00,17.0,6.0,-100.00,SW,235,4.0,7.0,61,-99.99,,,-99.99,,2013-01-01 14:02:00,
2013-01-01 09:11:00,18.0,7.0,-100.00,SW,230,7.0,7.0,62,-99.99,,,-99.99,,2013-01-01 14:11:00,
2013-01-01 09:21:00,15.0,6.0,-100.00,SW,220,14.0,15.0,66,-99.99,,,-99.99,,2013-01-01 14:21:00,
2013-01-01 09:32:00,17.0,7.0,-100.00,SW,220,14.0,16.0,66,-99.99,,,-99.99,,2013-01-01 14:32:00,
2013-01-01 09:42:00,17.0,8.0,-100.00,SW,215,14.0,15.0,65,-99.99,,,-99.99,,2013-01-01 14:42:00,
2013-01-01 09:52:00,15.0,6.0,-100.00,SSW,200,9.0,14.0,66,-99.99,,,-99.99,,2013-01-01 14:52:00,
2013-01-01 10:02:00,11.0,3.0,-100.00,South,190,6.0,10.0,70,-99.99,,,-99.99,,2013-01-01 15:02:00,
2013-01-01 10:12:00,15.0,6.0,-100.00,South,185,6.0,7.0,68,-99.99,,,-99.99,,2013-01-01 15:12:00,
2013-01-01 10:22:00,11.0,4.0,-100.00,SE,135,9.0,10.0,70,-99.99,,,-99.99,,2013-01-01 15:22:00,
2013-01-01 10:32:00,11.0,4.0,-100.00,SSE,165,5.0,9.0,70,-99.99,,,-99.99,,2013-01-01 15:32:00,
2013-01-01 10:42:00,11.0,3.0,-100.00,SSE,150,7.0,9.0,70,-99.99,,,-99.99,,2013-01-01 15:42:00,
2013-01-01 10:52:00,11.0,3.0,-100.00,SSE,155,4.0,7.0,68,-99.99,,,-99.99,,2013-01-01 15:52:00,
2013-01-01 11:02:00,13.0,4.0,-100.00,South,170,3.0,5.0,66,-99.99,,,-99.99,,2013-01-01 16:02:00,
2013-01-01 11:11:00,14.0,4.0,-100.00,SSE,160,4.0,6.0,64,-99.99,,,-99.99,,2013-01-01 16:11:00,
2013-01-01 11:22:00,17.0,6.0,-100.00,South,190,3.0,4.0,60,-99.99,,,-99.99,,2013-01-01 16:22:00,
2013-01-01 11:32:00,18.0,6.0,-100.00,South,190,2.0,4.0,58,-99.99,,,-99.99,,2013-01-01 16:32:00,
2013-01-01 11:42:00,19.0,6.0,-100.00,South,180,4.0,6.0,55,-99.99,,,-99.99,,2013-01-01 16:42:00,
2013-01-01 11:52:00,17.0,4.0,-100.00,South,180,6.0,7.0,56,-99.99,,,-99.99,,2013-01-01 16:52:00,
2013-01-01 12:02:00,17.0,4.0,-100.00,South,185,9.0,10.0,56,-99.99,,,-99.99,,2013-01-01 17:02:00,
2013-01-01 12:11:00,17.0,4.0,-100.00,South,185,8.0,10.0,56,-99.99,,,-99.99,,2013-01-01 17:11:00,
2013-01-01 12:22:00,17.0,5.0,-100.00,South,185,12.0,12.0,56,-99.99,,,-99.99,,2013-01-01 17:22:00,
2013-01-01 12:32:00,18.0,4.0,-100.00,South,185,10.0,12.0,55,-99.99,,,-99.99,,2013-01-01 17:32:00,
2013-01-01 12:42:00,18.0,5.0,-100.00,South,185,8.0,12.0,55,-99.99,,,-99.99,,2013-01-01 17:42:00,
2013-01-01 12:52:00,23.0,7.0,-100.00,SSW,200,1.0,6.0,49,-99.99,,,-99.99,,2013-01-01 17:52:00,
2013-01-01 13:02:00,22.0,4.0,-100.00,North,0,4.0,6.0,45,-99.99,,,-99.99,,2013-01-01 18:02:00,
2013-01-01 13:12:00,23.0,5.0,-100.00,East,85,2.0,6.0,45,-99.99,,,-99.99,,2013-01-01 18:12:00,
2013-01-01 13:22:00,26.0,6.0,-100.00,NNE,20,2.0,3.0,41,-99.99,,,-99.99,,2013-01-01 18:22:00,
2013-01-01 13:32:00,28.0,5.0,-100.00,ESE,110,1.0,2.0,37,-99.99,,,-99.99,,2013-01-01 18:32:00,
2013-01-01 13:42:00,23.0,3.0,-100.00,SSE,165,4.0,6.0,41,-99.99,,,-99.99,,2013-01-01 18:42:00,
2013-01-01 13:52:00,24.0,4.0,-100.00,SE,130,6.0,6.0,42,-99.99,,,-99.99,,2013-01-01 18:52:00,
2013-01-01 14:02:00,22.0,4.0,-100.00,SE,140,5.0,7.0,44,-99.99,,,-99.99,,2013-01-01 19:02:00,
2013-01-01 14:11:00,21.0,3.0,-100.00,SSE,155,7.0,7.0,45,-99.99,,,-99.99,,2013-01-01 19:11:00,
2013-01-01 14:22:00,21.0,4.0,-100.00,SSW,195,9.0,11.0,47,-99.99,,,-99.99,,2013-01-01 19:22:00,
2013-01-01 14:32:00,21.0,4.0,-100.00,South,190,11.0,12.0,47,-99.99,,,-99.99,,2013-01-01 19:32:00,
2013-01-01 14:42:00,22.0,5.0,-100.00,South,185,10.0,12.0,48,-99.99,,,-99.99,,2013-01-01 19:42:00,
2013-01-01 14:52:00,22.0,7.0,-100.00,South,185,14.0,16.0,51,-99.99,,,-99.99,,2013-01-01 19:52:00,
2013-01-01 15:02:00,23.0,7.0,-100.00,SSW,195,15.0,16.0,49,-99.99,,,-99.99,,2013-01-01 20:02:00,
2013-01-01 15:11:00,23.0,7.0,-100.00,South,190,15.0,17.0,49,-99.99,,,-99.99,,2013-01-01 20:11:00,
2013-01-01 15:22:00,24.0,7.0,-100.00,South,185,12.0,17.0,47,-99.99,,,-99.99,,2013-01-01 20:22:00,
2013-01-01 15:32:00,25.0,7.0,-100.00,SSW,200,11.0,14.0,46,-99.99,,,-99.99,,2013-01-01 20:32:00,
2013-01-01 15:42:00,25.0,7.0,-100.00,SSW,205,9.0,12.0,45,-99.99,,,-99.99,,2013-01-01 20:42:00,
2013-01-01 15:52:00,27.0,8.0,-100.00,SSW,205,7.0,11.0,43,-99.99,,,-99.99,,2013-01-01 20:52:00,
2013-01-01 16:02:00,28.0,8.0,-100.00,SSW,205,6.0,8.0,42,-99.99,,,-99.99,,2013-01-01 21:02:00,
2013-01-01 16:12:00,29.0,9.0,-100.00,NNW,330,3.0,5.0,42,-99.99,,,-99.99,,2013-01-01 21:12:00,
2013-01-01 16:22:00,30.0,8.0,-100.00,North,355,1.0,2.0,39,-99.99,,,-99.99,,2013-01-01 21:22:00,
2013-01-01 16:32:00,29.0,8.0,-100.00,ESE,120,3.0,6.0,41,-99.99,,,-99.99,,2013-01-01 21:32:00,
2013-01-01 16:42:00,28.0,8.0,-100.00,SE,125,1.0,6.0,41,-99.99,,,-99.99,,2013-01-01 21:42:00,
2013-01-01 16:52:00,27.0,8.0,-100.00,SSW,200,1.0,6.0,44,-99.99,,,-99.99,,2013-01-01 21:52:00,
2013-01-01 17:02:00,25.0,8.0,-100.00,North,355,7.0,8.0,47,-99.99,,,-99.99,,2013-01-01 22:02:00,
2013-01-01 17:11:00,22.0,8.0,-100.00,North,5,21.0,24.0,53,-99.99,,,-99.99,,2013-01-01 22:11:00,
2013-01-01 17:22:00,18.0,13.0,-100.00,NNE,25,22.0,32.0,77,-99.99,,,-99.99,,2013-01-01 22:22:00,
2013-01-01 17:32:00,17.0,14.0,-100.00,NNE,30,17.0,27.0,87,-99.99,,,-99.99,,2013-01-01 22:32:00,
2013-01-01 17:52:00,18.0,16.0,-100.00,North,10,0.0,6.0,90,-99.99,,,-99.99,,2013-01-01 22:52:00,
2013-01-01 18:02:00,18.0,16.0,-100.00,NNE,20,2.0,4.0,90,-99.99,,,-99.99,,2013-01-01 23:02:00,
2013-01-01 18:12:00,18.0,16.0,-100.00,WSW,255,2.0,4.0,90,-99.99,,,-99.99,,2013-01-01 23:12:00,
2013-01-01 18:22:00,17.0,15.0,-100.00,West,270,7.0,9.0,91,-99.99,,,-99.99,,2013-01-01 23:22:00,
2013-01-01 18:32:00,17.0,14.0,-100.00,West,265,6.0,9.0,91,-99.99,,,-99.99,,2013-01-01 23:32:00,
2013-01-01 18:42:00,17.0,14.0,-100.00,West,260,5.0,8.0,91,-99.99,,,-99.99,,2013-01-01 23:42:00,
2013-01-01 18:52:00,17.0,15.0,-100.00,West,270,7.0,9.0,91,-99.99,,,-99.99,,2013-01-01 23:52:00,
2013-01-01 19:02:00,18.0,16.0,-100.00,NW,310,10.0,12.0,91,-99.99,,,-99.99,,2013-01-02 00:02:00,
2013-01-01 19:12:00,19.0,17.0,-100.00,NW,315,10.0,12.0,89,-99.99,,,-99.99,,2013-01-02 00:12:00,
2013-01-01 19:22:00,19.0,17.0,-100.00,NW,325,12.0,14.0,88,-99.99,,,-99.99,,2013-01-02 00:22:00,
2013-01-01 19:32:00,19.0,16.0,-100.00,NNW,345,12.0,16.0,88,-99.99,,,-99.99,,2013-01-02 00:32:00,
2013-01-01 19:42:00,20.0,17.0,-100.00,NW,325,12.0,17.0,88,-99.99,,,-99.99,,2013-01-02 00:42:00,
2013-01-01 19:52:00,20.0,17.0,-100.00,NW,310,12.0,16.0,87,-99.99,,,-99.99,,2013-01-02 00:52:00,
2013-01-01 20:02:00,20.0,17.0,-100.00,NW,310,12.0,14.0,87,-99.99,,,-99.99,,2013-01-02 01:02:00,
2013-01-01 20:11:00,20.0,17.0,-100.00,NNW,330,12.0,16.0,87,-99.99,,,-99.99,,2013-01-02 01:11:00,
2013-01-01 20:22:00,20.0,16.0,-100.00,NNW,330,14.0,19.0,83,-99.99,,,-99.99,,2013-01-02 01:22:00,
2013-01-01 20:32:00,21.0,16.0,-100.00,NNW,335,14.0,17.0,82,-99.99,,,-99.99,,2013-01-02 01:32:00,
2013-01-01 20:42:00,21.0,16.0,-100.00,NNW,335,13.0,19.0,79,-99.99,,,-99.99,,2013-01-02 01:42:00,
2013-01-01 20:52:00,21.0,15.0,-100.00,NW,320,9.0,13.0,79,-99.99,,,-99.99,,2013-01-02 01:52:00,
2013-01-01 21:02:00,21.0,15.0,-100.00,NW,310,7.0,11.0,77,-99.99,,,-99.99,,2013-01-02 02:02:00,
2013-01-01 21:11:00,21.0,15.0,-100.00,NW,315,7.0,10.0,75,-99.99,,,-99.99,,2013-01-02 02:11:00,
2013-01-01 21:22:00,21.0,15.0,-100.00,WNW,300,4.0,6.0,75,-99.99,,,-99.99,,2013-01-02 02:22:00,
2013-01-01 21:32:00,21.0,14.0,-100.00,NW,320,6.0,7.0,72,-99.99,,,-99.99,,2013-01-02 02:32:00,
2013-01-01 21:42:00,22.0,13.0,-100.00,North,350,4.0,8.0,69,-99.99,,,-99.99,,2013-01-02 02:42:00,
2013-01-01 21:52:00,22.0,13.0,-100.00,NW,325,8.0,12.0,66,-99.99,,,-99.99,,2013-01-02 02:52:00,
2013-01-01 22:02:00,21.0,12.0,-100.00,North,0,9.0,13.0,67,-99.99,,,-99.99,,2013-01-02 03:02:00,
2013-01-01 22:11:00,22.0,13.0,-100.00,North,10,12.0,16.0,67,-99.99,,,-99.99,,2013-01-02 03:11:00,
2013-01-01 22:22:00,20.0,11.0,-100.00,North,10,7.0,12.0,68,-99.99,,,-99.99,,2013-01-02 03:22:00,
2013-01-01 22:32:00,20.0,11.0,-100.00,North,5,10.0,13.0,68,-99.99,,,-99.99,,2013-01-02 03:32:00,
2013-01-01 22:42:00,19.0,11.0,-100.00,NNE,15,10.0,13.0,68,-99.99,,,-99.99,,2013-01-02 03:42:00,
2013-01-01 22:52:00,20.0,11.0,-100.00,North,355,9.0,13.0,66,-99.99,,,-99.99,,2013-01-02 03:52:00,
2013-01-01 23:02:00,19.0,9.0,-100.00,WSW,250,4.0,9.0,65,-99.99,,,-99.99,,2013-01-02 04:02:00,
2013-01-01 23:11:00,17.0,9.0,-100.00,WSW,240,3.0,6.0,68,-99.99,,,-99.99,,2013-01-02 04:11:00,
2013-01-01 23:22:00,17.0,9.0,-100.00,WSW,245,0.0,4.0,71,-99.99,,,-99.99,,2013-01-02 04:22:00,
2013-01-01 23:32:00,16.0,8.0,-100.00,WSW,240,2.0,2.0,71,-99.99,,,-99.99,,2013-01-02 04:32:00,
2013-01-01 23:42:00,15.0,8.0,-100.00,West,260,2.0,4.0,74,-99.99,,,-99.99,,2013-01-02 04:42:00,
2013-01-01 23:52:00,15.0,8.0,-100.00,West,275,2.0,4.0,75,-99.99,,,-99.99,,2013-01-02 04:52:00,